createdAt,value
2017-09-26T00:01:28.621Z,11.32
2017-09-26T00:03:56.372Z,11.22
2017-09-26T00:06:24.303Z,11.17
2017-09-26T00:08:52.852Z,11.15
2017-09-26T00:11:20.586Z,11.14
2017-09-26T00:13:48.364Z,11.08
2017-09-26T00:16:17.276Z,11.05
2017-09-26T00:18:45.008Z,11.07
2017-09-26T00:21:12.752Z,10.94
2017-09-26T00:23:40.523Z,10.94
2017-09-26T00:26:08.261Z,10.97
2017-09-26T00:28:35.952Z,10.94
2017-09-26T00:31:03.734Z,11.02
2017-09-26T00:33:31.558Z,10.95
2017-09-26T00:36:02.887Z,10.91
2017-09-26T00:38:30.705Z,10.75
2017-09-26T00:40:58.716Z,10.69
2017-09-26T00:43:26.404Z,10.57
2017-09-26T00:45:54.154Z,10.46
2017-09-26T00:48:22.716Z,10.46
2017-09-26T00:50:50.463Z,10.46
2017-09-26T00:53:19.279Z,10.44
2017-09-26T00:55:47.067Z,10.42
2017-09-26T00:58:14.840Z,10.43
2017-09-26T01:00:42.633Z,10.43
2017-09-26T01:03:10.404Z,10.43
2017-09-26T01:08:35.766Z,10.25
2017-09-26T01:11:04.826Z,10.12
2017-09-26T01:13:32.591Z,10.12
2017-09-26T01:16:00.429Z,10.07
2017-09-26T01:18:29.392Z,9.95
2017-09-26T01:20:57.217Z,10.05
2017-09-26T01:23:25.029Z,10.02
2017-09-26T01:25:52.756Z,9.97
2017-09-26T01:28:20.463Z,10.00
2017-09-26T01:30:48.254Z,10.03
2017-09-26T01:33:15.971Z,10.04
2017-09-26T01:35:43.698Z,10.02
2017-09-26T01:38:11.391Z,10.07
2017-09-26T01:40:50.727Z,10.03
2017-09-26T01:43:18.423Z,10.04
2017-09-26T01:45:46.096Z,9.97
2017-09-26T01:48:13.927Z,9.97
2017-09-26T01:50:41.713Z,9.92
2017-09-26T01:53:09.554Z,9.94
2017-09-26T01:55:37.628Z,9.79
2017-09-26T01:58:07.436Z,9.71
2017-09-26T02:00:35.222Z,9.63
2017-09-26T02:03:02.905Z,9.76
2017-09-26T02:05:30.637Z,9.70
2017-09-26T02:07:58.385Z,9.66
2017-09-26T02:10:26.147Z,9.62
2017-09-26T02:12:53.951Z,9.65
2017-09-26T02:15:22.610Z,9.59
2017-09-26T02:17:51.460Z,9.64
2017-09-26T02:20:19.145Z,9.68
2017-09-26T02:22:46.908Z,9.66
2017-09-26T02:25:14.693Z,9.66
2017-09-26T02:27:42.486Z,9.66
2017-09-26T02:30:10.239Z,9.66
2017-09-26T02:32:38.835Z,9.54
2017-09-26T02:35:06.551Z,9.42
2017-09-26T02:37:34.380Z,9.38
2017-09-26T02:40:05.669Z,9.38
2017-09-26T02:42:33.384Z,9.30
2017-09-26T02:45:01.168Z,9.29
2017-09-26T02:47:28.827Z,9.23
2017-09-26T02:49:56.519Z,9.19
2017-09-26T02:52:24.248Z,9.26
2017-09-26T02:54:51.926Z,9.27
2017-09-26T02:57:19.719Z,9.23
2017-09-26T02:59:47.409Z,9.22
2017-09-26T03:02:15.121Z,9.14
2017-09-26T03:04:42.795Z,9.18
2017-09-26T03:07:10.539Z,9.04
2017-09-26T03:09:38.270Z,8.99
2017-09-26T03:12:06.007Z,9.06
2017-09-26T03:14:33.706Z,9.09
2017-09-26T03:17:02.144Z,9.19
2017-09-26T03:19:31.196Z,9.17
2017-09-26T03:22:00.087Z,9.05
2017-09-26T03:24:27.819Z,8.77
2017-09-26T03:26:55.500Z,8.88
2017-09-26T03:29:23.225Z,8.93
2017-09-26T03:31:50.977Z,8.89
2017-09-26T03:34:18.747Z,8.88
2017-09-26T03:36:46.520Z,8.97
2017-09-26T03:39:15.148Z,9.01
2017-09-26T03:41:43.420Z,9.03
2017-09-26T03:44:11.149Z,9.03
2017-09-26T03:46:38.879Z,8.99
2017-09-26T03:49:06.621Z,8.82
2017-09-26T03:51:35.097Z,8.64
2017-09-26T03:54:02.764Z,8.74
2017-09-26T03:56:30.555Z,8.79
2017-09-26T03:58:58.690Z,8.79
2017-09-26T04:01:26.384Z,8.81
2017-09-26T04:03:54.188Z,8.81
2017-09-26T04:41:56.614Z,8.30
2017-09-26T04:44:24.300Z,8.26
2017-09-26T04:46:53.197Z,8.12
2017-09-26T04:49:21.313Z,8.25
2017-09-26T04:51:48.998Z,8.16
2017-09-26T04:54:16.668Z,8.26
2017-09-26T04:56:44.462Z,8.17
2017-09-26T04:59:12.355Z,8.08
2017-09-26T05:01:40.090Z,8.22
2017-09-26T05:04:07.824Z,8.12
2017-09-26T05:06:35.503Z,7.97
2017-09-26T05:09:03.436Z,8.04
2017-09-26T05:11:31.161Z,8.12
2017-09-26T05:13:58.917Z,7.94
2017-09-26T05:16:26.707Z,7.97
2017-09-26T05:18:54.534Z,7.79
2017-09-26T05:21:22.242Z,7.78
2017-09-26T05:23:49.970Z,7.72
2017-09-26T05:26:17.744Z,7.76
2017-09-26T05:28:45.487Z,7.83
2017-09-26T05:31:13.226Z,7.92
2017-09-26T05:33:41.013Z,7.89
2017-09-26T05:36:08.752Z,7.99
2017-09-26T05:38:36.527Z,7.98
2017-09-26T05:41:04.320Z,8.15
2017-09-26T05:43:32.031Z,8.21
2017-09-26T05:45:59.790Z,8.23
2017-09-26T05:48:27.533Z,8.28
2017-09-26T05:50:56.635Z,8.15
2017-09-26T05:53:24.492Z,8.19
2017-09-26T05:55:52.195Z,8.06
2017-09-26T05:58:19.917Z,8.05
2017-09-26T06:00:47.726Z,8.14
2017-09-26T06:03:15.466Z,8.31
2017-09-26T06:05:43.516Z,8.39
2017-09-26T06:08:11.277Z,8.44
2017-09-26T06:10:38.998Z,8.54
2017-09-26T06:13:06.703Z,8.44
2017-09-26T06:15:34.451Z,8.43
2017-09-26T06:18:02.245Z,8.60
2017-09-26T06:20:30.022Z,8.68
2017-09-26T06:22:57.797Z,8.76
2017-09-26T06:25:25.697Z,8.82
2017-09-26T06:27:53.446Z,8.88
2017-09-26T06:30:21.162Z,8.91
2017-09-26T06:32:48.886Z,8.92
2017-09-26T06:35:16.629Z,8.88
2017-09-26T06:37:44.402Z,8.86
2017-09-26T06:40:12.263Z,8.80
2017-09-26T06:42:40.057Z,8.90
2017-09-26T06:45:07.902Z,8.97
2017-09-26T06:47:35.786Z,9.16
2017-09-26T06:50:03.493Z,9.27
2017-09-26T06:52:31.185Z,9.41
2017-09-26T06:54:58.989Z,9.60
2017-09-26T06:57:26.794Z,9.42
2017-09-26T06:59:54.533Z,9.36
2017-09-26T07:02:22.288Z,9.30
2017-09-26T07:04:50.138Z,9.36
2017-09-26T07:07:17.902Z,9.49
2017-09-26T07:09:45.644Z,9.57
2017-09-26T07:12:13.409Z,9.68
2017-09-26T07:14:41.191Z,9.75
2017-09-26T07:17:08.922Z,9.78
2017-09-26T07:19:36.629Z,9.70
2017-09-26T07:22:04.383Z,9.84
2017-09-26T07:24:32.150Z,10.09
2017-09-26T07:26:59.828Z,10.24
2017-09-26T07:29:27.567Z,10.15
2017-09-26T07:31:55.271Z,10.21
2017-09-26T07:34:22.993Z,10.13
2017-09-26T07:36:50.720Z,10.03
2017-09-26T07:39:18.465Z,9.90
2017-09-26T07:41:46.155Z,10.03
2017-09-26T07:44:13.920Z,10.21
2017-09-26T07:46:42.562Z,10.25
2017-09-26T07:49:10.242Z,10.32
2017-09-26T07:51:38.109Z,10.22
2017-09-26T07:54:05.825Z,10.11
2017-09-26T07:56:33.618Z,10.19
2017-09-26T07:59:01.426Z,10.23
2017-09-26T08:01:29.126Z,10.40
2017-09-26T08:03:57.547Z,10.76
2017-09-26T08:06:25.670Z,10.59
2017-09-26T08:08:53.788Z,10.80
2017-09-26T08:11:21.570Z,10.81
2017-09-26T08:13:49.321Z,10.85
2017-09-26T08:16:17.174Z,10.99
2017-09-26T08:18:44.916Z,11.19
2017-09-26T08:21:13.253Z,11.47
2017-09-26T08:23:41.112Z,11.49
2017-09-26T08:26:08.806Z,11.47
2017-09-26T08:28:36.513Z,11.35
2017-09-26T08:31:04.392Z,11.41
2017-09-26T08:33:32.084Z,11.56
2017-09-26T08:35:59.817Z,11.73
2017-09-26T08:38:27.670Z,11.57
2017-09-26T08:40:55.346Z,11.80
2017-09-26T08:43:23.023Z,12.04
2017-09-26T08:45:50.751Z,12.33
2017-09-26T08:48:18.465Z,12.25
2017-09-26T08:50:46.217Z,12.24
2017-09-26T08:53:13.947Z,12.30
2017-09-26T08:55:41.780Z,12.37
2017-09-26T08:58:09.541Z,12.47
2017-09-26T09:00:37.238Z,12.50
2017-09-26T09:03:05.028Z,12.54
2017-09-26T09:05:32.764Z,12.64
2017-09-26T09:08:00.492Z,12.83
2017-09-26T09:10:28.264Z,12.97
2017-09-26T09:12:55.966Z,12.87
2017-09-26T09:15:23.746Z,12.87
2017-09-26T09:17:51.446Z,12.89
2017-09-26T09:20:19.155Z,12.94
2017-09-26T09:22:47.088Z,12.95
2017-09-26T09:25:14.832Z,12.99
2017-09-26T09:27:42.660Z,12.98
2017-09-26T09:30:10.363Z,12.97
2017-09-26T09:32:38.123Z,12.93
2017-09-26T09:35:05.947Z,12.90
2017-09-26T09:37:33.699Z,12.88
2017-09-26T09:40:01.459Z,12.87
2017-09-26T09:42:29.143Z,12.84
2017-09-26T09:44:56.878Z,12.83
2017-09-26T09:47:24.561Z,12.77
2017-09-26T09:49:52.319Z,12.73
2017-09-26T09:52:20.037Z,12.74
2017-09-26T09:54:47.785Z,12.79
2017-09-26T09:57:15.626Z,12.92
2017-09-26T09:59:43.438Z,12.86
2017-09-26T10:02:11.277Z,12.91
2017-09-26T10:04:39.056Z,12.66
2017-09-26T10:07:06.810Z,12.72
2017-09-26T10:09:34.537Z,12.68
2017-09-26T10:12:02.353Z,12.77
2017-09-26T10:14:30.287Z,12.58
2017-09-26T10:16:58.104Z,12.64
2017-09-26T10:19:25.870Z,12.63
2017-09-26T10:21:53.666Z,12.72
2017-09-26T10:24:21.509Z,12.74
2017-09-26T10:26:49.243Z,12.77
2017-09-26T10:29:17.298Z,12.81
2017-09-26T10:31:45.864Z,12.78
2017-09-26T10:34:13.951Z,12.76
2017-09-26T10:36:42.417Z,12.70
2017-09-26T10:39:10.187Z,12.71
2017-09-26T10:41:37.949Z,12.75
2017-09-26T10:44:05.806Z,12.78
2017-09-26T10:46:33.513Z,12.85
2017-09-26T10:49:01.326Z,12.91
2017-09-26T10:51:29.079Z,12.97
2017-09-26T10:53:56.808Z,13.01
2017-09-26T10:56:24.596Z,13.02
2017-09-26T10:58:52.329Z,13.02
2017-09-26T11:01:20.168Z,13.21
2017-09-26T11:03:47.954Z,13.26
2017-09-26T11:06:15.747Z,13.04
2017-09-26T11:08:43.553Z,12.88
2017-09-26T11:11:11.341Z,12.99
2017-09-26T11:13:39.195Z,13.10
2017-09-26T11:16:06.941Z,13.20
2017-09-26T11:18:34.689Z,13.25
2017-09-26T11:21:02.594Z,13.35
2017-09-26T11:23:30.395Z,13.42
2017-09-26T11:25:58.208Z,13.41
2017-09-26T11:28:25.969Z,13.41
2017-09-26T11:30:53.848Z,13.46
2017-09-26T11:33:21.700Z,13.48
2017-09-26T11:35:49.509Z,13.51
2017-09-26T11:38:17.385Z,13.52
2017-09-26T11:40:45.230Z,13.58
2017-09-26T11:43:13.013Z,13.60
2017-09-26T11:45:40.858Z,13.69
2017-09-26T11:48:08.591Z,13.60
2017-09-26T11:50:36.488Z,13.60
2017-09-26T11:53:05.211Z,13.62
2017-09-26T11:55:33.500Z,13.62
2017-09-26T11:58:01.285Z,13.53
2017-09-26T12:00:29.175Z,13.72
2017-09-26T12:02:56.931Z,13.76
2017-09-26T12:05:25.680Z,13.77
2017-09-26T12:07:53.408Z,13.85
2017-09-26T12:10:21.224Z,13.91
2017-09-26T12:12:54.570Z,13.95
2017-09-26T12:15:22.368Z,13.94
2017-09-26T12:17:51.388Z,13.98
2017-09-26T12:20:19.104Z,13.96
2017-09-26T12:22:47.226Z,14.01
2017-09-26T12:25:14.996Z,13.91
2017-09-26T12:27:42.793Z,13.92
2017-09-26T12:30:10.611Z,13.93
2017-09-26T12:32:39.726Z,13.92
2017-09-26T12:35:08.136Z,13.91
2017-09-26T12:37:36.021Z,13.91
2017-09-26T12:40:04.057Z,13.91
2017-09-26T12:42:31.923Z,13.97
2017-09-26T12:45:01.950Z,13.92
2017-09-26T12:47:29.896Z,13.80
2017-09-26T12:49:57.786Z,13.98
2017-09-26T12:52:25.725Z,13.86
2017-09-26T12:54:53.510Z,13.80
2017-09-26T12:57:21.396Z,13.78
2017-09-26T12:59:49.161Z,13.69
2017-09-26T13:02:16.989Z,13.65
2017-09-26T13:04:44.779Z,13.64
2017-09-26T13:07:14.170Z,13.62
2017-09-26T13:09:42.117Z,13.60
2017-09-26T13:12:09.977Z,13.55
2017-09-26T13:14:37.750Z,13.54
2017-09-26T13:17:06.155Z,13.51
2017-09-26T13:19:33.958Z,13.57
2017-09-26T13:22:01.671Z,13.64
2017-09-26T13:24:29.381Z,13.65
2017-09-26T13:26:57.445Z,13.66
2017-09-26T13:29:25.174Z,13.69
2017-09-26T13:31:53.198Z,13.73
2017-09-26T13:34:20.996Z,13.72
2017-09-26T13:36:49.849Z,13.72
2017-09-26T13:39:18.183Z,13.72
2017-09-26T13:41:46.882Z,13.75
2017-09-26T13:44:14.627Z,13.77
2017-09-26T13:46:43.521Z,13.92
2017-09-26T13:49:11.337Z,14.00
2017-09-26T13:51:39.388Z,13.83
2017-09-26T13:54:09.347Z,13.80
2017-09-26T13:56:38.523Z,13.78
2017-09-26T13:59:06.289Z,13.84
2017-09-26T14:01:34.078Z,13.88
2017-09-26T14:04:03.736Z,13.89
2017-09-26T14:06:31.569Z,13.91
2017-09-26T14:08:59.352Z,13.90
2017-09-26T14:11:27.166Z,13.86
2017-09-26T14:13:54.989Z,13.91
2017-09-26T14:16:22.770Z,13.94
2017-09-26T14:18:50.706Z,13.87
2017-09-26T14:21:18.519Z,13.86
2017-09-26T14:23:46.284Z,13.85
2017-09-26T14:26:14.064Z,13.89
2017-09-26T14:28:41.849Z,14.04
2017-09-26T14:31:10.469Z,14.09
2017-09-26T14:33:38.350Z,13.88
2017-09-26T14:36:06.873Z,13.90
2017-09-26T14:38:34.646Z,13.83
2017-09-26T14:41:03.288Z,13.75
2017-09-26T14:43:31.065Z,13.79
2017-09-26T14:45:59.671Z,13.76
2017-09-26T14:48:27.504Z,13.81
2017-09-26T14:50:55.229Z,14.03
2017-09-26T14:53:23.030Z,13.92
2017-09-26T14:55:50.822Z,13.86
2017-09-26T14:58:18.546Z,13.88
2017-09-26T15:00:46.347Z,13.90
2017-09-26T15:03:14.130Z,13.94
2017-09-26T15:05:41.895Z,13.95
2017-09-26T15:08:10.347Z,13.97
2017-09-26T15:10:38.109Z,13.95
2017-09-26T15:13:05.953Z,13.93
2017-09-26T15:15:33.686Z,13.97
2017-09-26T15:18:02.201Z,13.96
2017-09-26T15:20:30.016Z,13.95
2017-09-26T15:22:57.820Z,13.94
2017-09-26T15:25:25.646Z,13.94
2017-09-26T15:27:53.415Z,13.99
2017-09-26T15:30:21.714Z,14.19
2017-09-26T15:32:49.541Z,14.03
2017-09-26T15:35:17.324Z,13.87
2017-09-26T15:37:45.174Z,13.81
2017-09-26T15:40:12.948Z,13.78
2017-09-26T15:42:40.819Z,13.76
2017-09-26T15:45:08.634Z,13.70
2017-09-26T15:47:36.524Z,13.73
2017-09-26T15:50:04.350Z,13.70
2017-09-26T15:52:32.178Z,13.71
2017-09-26T15:55:00.101Z,13.76
2017-09-26T15:57:27.955Z,13.74
2017-09-26T15:59:55.803Z,13.74
2017-09-26T16:02:23.674Z,13.72
2017-09-26T16:04:51.483Z,13.68
2017-09-26T16:07:19.667Z,13.68
2017-09-26T16:09:47.401Z,13.65
2017-09-26T16:12:15.252Z,13.61
2017-09-26T16:14:43.079Z,13.57
2017-09-26T16:17:10.862Z,13.55
2017-09-26T16:19:38.647Z,13.55
2017-09-26T16:22:06.424Z,13.52
2017-09-26T16:24:34.140Z,13.51
2017-09-26T16:27:01.951Z,13.50
2017-09-26T16:29:29.733Z,13.46
2017-09-26T16:31:57.550Z,13.47
2017-09-26T16:34:25.520Z,13.41
2017-09-26T16:36:53.283Z,13.38
2017-09-26T16:39:21.136Z,13.38
2017-09-26T16:41:48.906Z,13.34
2017-09-26T16:44:16.659Z,13.32
2017-09-26T16:46:44.444Z,13.27
2017-09-26T16:49:12.194Z,13.30
2017-09-26T16:51:40.884Z,13.28
2017-09-26T16:54:08.624Z,13.15
2017-09-26T16:56:36.355Z,13.04
2017-09-26T16:59:04.198Z,13.11
2017-09-26T17:01:31.943Z,13.05
2017-09-26T17:03:59.654Z,13.02
2017-09-26T17:06:27.466Z,13.00
2017-09-26T17:08:55.253Z,13.11
2017-09-26T17:11:22.998Z,13.06
2017-09-26T17:13:50.773Z,12.99
2017-09-26T17:16:18.509Z,12.97
2017-09-26T17:18:46.287Z,12.93
2017-09-26T17:21:14.005Z,12.91
2017-09-26T17:23:41.783Z,12.91
2017-09-26T17:26:09.595Z,12.92
2017-09-26T17:28:37.364Z,12.98
2017-09-26T17:31:05.653Z,12.96
2017-09-26T17:33:33.534Z,12.94
2017-09-26T17:36:01.245Z,12.87
2017-09-26T17:38:29.013Z,12.81
2017-09-26T17:40:56.831Z,12.94
2017-09-26T17:43:24.651Z,12.91
2017-09-26T17:45:52.423Z,12.86
2017-09-26T17:48:21.179Z,12.96
2017-09-26T17:50:48.944Z,12.82
2017-09-26T17:53:16.740Z,12.68
2017-09-26T17:55:44.517Z,12.62
2017-09-26T17:58:12.321Z,12.62
2017-09-26T18:00:41.176Z,12.64
2017-09-26T18:03:09.475Z,12.62
2017-09-26T18:05:37.250Z,12.63
2017-09-26T18:08:05.166Z,12.63
2017-09-26T18:10:33.140Z,12.65
2017-09-26T18:13:00.927Z,12.70
2017-09-26T18:15:28.811Z,12.67
2017-09-26T18:17:56.606Z,12.64
2017-09-26T18:20:24.438Z,12.58
2017-09-26T18:22:52.200Z,12.58
2017-09-26T18:25:20.092Z,12.60
2017-09-26T18:27:48.143Z,12.65
2017-09-26T18:30:16.936Z,12.62
2017-09-26T18:32:44.801Z,12.60
2017-09-26T18:35:12.578Z,12.62
2017-09-26T18:37:40.444Z,12.63
2017-09-26T18:40:08.331Z,12.65
2017-09-26T18:42:36.135Z,12.59
2017-09-26T18:45:03.914Z,12.57
2017-09-26T18:47:31.887Z,12.53
2017-09-26T18:50:00.152Z,12.52
2017-09-26T18:52:27.919Z,12.51
2017-09-26T18:54:55.750Z,12.55
2017-09-26T18:57:23.496Z,12.52
2017-09-26T18:59:51.506Z,12.53
2017-09-26T19:02:19.263Z,12.52
2017-09-26T19:04:47.120Z,12.50
2017-09-26T19:07:14.893Z,12.52
2017-09-26T19:09:42.723Z,12.45
2017-09-26T19:12:11.414Z,12.43
2017-09-26T19:14:39.164Z,12.42
2017-09-26T19:17:07.752Z,12.47
2017-09-26T19:19:36.665Z,12.44
2017-09-26T19:22:04.603Z,12.40
2017-09-26T19:24:32.739Z,12.46
2017-09-26T19:27:00.551Z,12.48
2017-09-26T19:29:28.475Z,12.51
2017-09-26T19:31:56.360Z,12.42
2017-09-26T19:34:24.304Z,12.43
2017-09-26T19:36:52.169Z,12.27
2017-09-26T19:39:20.047Z,12.22
2017-09-26T19:41:48.804Z,12.19
2017-09-26T19:47:35.759Z,12.20
2017-09-26T19:50:03.493Z,12.23
2017-09-26T19:52:31.626Z,12.26
2017-09-26T19:54:59.417Z,12.26
2017-09-26T19:57:27.210Z,12.17
2017-09-26T19:59:55.344Z,12.15
2017-09-26T20:02:23.288Z,12.10
2017-09-26T20:04:51.073Z,12.06
2017-09-26T20:07:18.830Z,12.00
2017-09-26T20:09:46.652Z,12.00
2017-09-26T20:12:14.436Z,11.99
2017-09-26T20:14:42.326Z,11.96
2017-09-26T20:17:10.169Z,11.85
2017-09-26T20:19:37.965Z,11.81
2017-09-26T20:22:06.184Z,11.73
2017-09-26T20:24:34.341Z,11.58
2017-09-26T20:27:02.493Z,11.58
2017-09-26T20:29:30.303Z,11.58
2017-09-26T20:32:00.113Z,11.53
2017-09-26T20:34:27.926Z,11.54
2017-09-26T20:36:55.897Z,11.51
2017-09-26T20:39:23.729Z,11.52
2017-09-26T20:41:51.531Z,11.49
2017-09-26T20:44:19.306Z,11.48
2017-09-26T20:46:47.849Z,11.50
2017-09-26T20:49:15.810Z,11.40
2017-09-26T20:51:43.919Z,11.25
2017-09-26T20:54:11.724Z,11.25
2017-09-26T20:56:40.569Z,11.25
2017-09-26T20:59:09.607Z,11.22
2017-09-26T21:01:37.399Z,11.23
2017-09-26T21:04:05.133Z,11.18
2017-09-26T21:06:32.948Z,11.12
2017-09-26T21:09:01.120Z,11.04
2017-09-26T21:11:28.905Z,10.96
2017-09-26T21:13:56.653Z,10.89
2017-09-26T21:16:24.570Z,10.80
2017-09-26T21:18:52.333Z,10.72
2017-09-26T21:21:20.114Z,10.66
2017-09-26T21:23:47.882Z,10.69
2017-09-26T21:26:15.691Z,10.65
2017-09-26T21:28:44.297Z,10.50
2017-09-26T21:31:12.109Z,10.52
2017-09-26T21:33:40.554Z,10.50
2017-09-26T21:36:08.284Z,10.51
2017-09-26T21:38:36.095Z,10.40
2017-09-26T21:41:04.910Z,10.38
2017-09-26T21:43:32.791Z,10.39
2017-09-26T21:46:00.556Z,10.46
2017-09-26T21:48:28.388Z,10.47
2017-09-26T21:50:56.326Z,10.48
2017-09-26T21:53:24.071Z,10.39
2017-09-26T21:55:51.849Z,10.33
2017-09-26T21:58:19.638Z,10.21
2017-09-26T22:00:47.427Z,10.20
2017-09-26T22:03:15.214Z,10.27
2017-09-26T22:05:42.935Z,10.31
2017-09-26T22:08:10.716Z,10.25
2017-09-26T22:10:38.444Z,10.36
2017-09-26T22:13:06.739Z,10.49
2017-09-26T22:15:34.542Z,10.25
2017-09-26T22:18:02.585Z,10.20
2017-09-26T22:20:30.363Z,10.22
2017-09-26T22:22:58.163Z,10.33
2017-09-26T22:25:26.110Z,10.34
2017-09-26T22:27:53.908Z,10.31
2017-09-26T22:30:21.786Z,10.34
2017-09-26T22:32:49.592Z,10.36
2017-09-26T22:35:17.280Z,10.38
2017-09-26T22:37:45.016Z,10.46
2017-09-26T22:40:12.736Z,10.30
2017-09-26T22:42:40.489Z,10.09
2017-09-26T22:45:08.160Z,10.12
2017-09-26T22:47:35.849Z,10.08
2017-09-26T22:50:03.568Z,10.07
2017-09-26T22:52:31.323Z,10.12
2017-09-26T22:54:59.095Z,10.14
2017-09-26T22:57:26.891Z,10.11
2017-09-26T22:59:54.703Z,10.17
2017-09-26T23:02:22.499Z,10.13
2017-09-26T23:04:50.208Z,10.08
2017-09-26T23:07:18.124Z,10.04
2017-09-26T23:09:45.836Z,9.94
2017-09-26T23:12:13.750Z,9.89
2017-09-26T23:14:41.471Z,9.91
2017-09-26T23:17:09.150Z,9.85
2017-09-26T23:19:37.001Z,10.17
2017-09-26T23:22:04.772Z,10.14
2017-09-26T23:24:32.515Z,9.94
2017-09-26T23:27:00.269Z,9.84
2017-09-26T23:29:28.002Z,9.85
2017-09-26T23:31:55.841Z,9.87
2017-09-26T23:34:23.608Z,9.86
2017-09-26T23:36:51.323Z,9.92
2017-09-26T23:39:19.038Z,9.92
2017-09-26T23:41:46.749Z,9.93
2017-09-26T23:44:14.433Z,9.96
2017-09-26T23:46:42.165Z,9.98
2017-09-26T23:49:09.909Z,10.01
2017-09-26T23:51:37.775Z,10.08
2017-09-26T23:54:05.596Z,10.09
2017-09-26T23:56:33.309Z,10.08
2017-09-26T23:59:01.073Z,10.31
